createdAt,value
2023-01-19T00:01:18.394Z,5.50
2023-01-19T00:05:22.050Z,5.55
2023-01-19T00:09:25.143Z,4.85
2023-01-19T00:13:29.689Z,5.22
2023-01-19T00:17:32.730Z,4.75
2023-01-19T00:21:35.764Z,6.65
2023-01-19T00:25:42.426Z,5.57
2023-01-19T00:29:47.219Z,5.47
2023-01-19T00:33:52.718Z,3.97
2023-01-19T00:37:57.027Z,5.05
2023-01-19T00:42:17.594Z,4.55
2023-01-19T00:46:27.232Z,6.13
2023-01-19T00:50:32.139Z,6.18
2023-01-19T00:54:35.158Z,4.38
2023-01-19T00:58:38.192Z,5.50
2023-01-19T01:02:44.036Z,4.03
2023-01-19T01:06:47.283Z,3.90
2023-01-19T01:10:51.937Z,5.05
2023-01-19T01:14:55.569Z,4.38
2023-01-19T01:18:59.932Z,4.15
2023-01-19T01:23:03.372Z,4.18
2023-01-19T01:27:07.242Z,4.40
2023-01-19T01:31:10.816Z,3.28
2023-01-19T01:35:16.126Z,4.25
2023-01-19T01:39:19.305Z,4.35
2023-01-19T01:43:22.311Z,5.45
2023-01-19T01:47:32.592Z,4.10
2023-01-19T01:51:42.080Z,3.70
2023-01-19T01:55:48.114Z,4.97
2023-01-19T01:59:52.192Z,5.63
2023-01-19T02:03:56.308Z,3.85
2023-01-19T02:08:23.461Z,3.33
2023-01-19T02:12:44.413Z,3.90
2023-01-19T02:16:47.906Z,4.20
2023-01-19T02:21:01.195Z,4.43
2023-01-19T02:25:06.783Z,5.32
2023-01-19T02:29:11.698Z,4.45
2023-01-19T02:33:14.961Z,4.00
2023-01-19T02:37:19.496Z,5.43
2023-01-19T02:41:27.798Z,4.10
2023-01-19T02:45:31.653Z,4.93
2023-01-19T02:49:34.760Z,4.38
2023-01-19T02:54:02.062Z,6.32
2023-01-19T02:58:12.875Z,4.82
2023-01-19T03:02:27.844Z,5.72
2023-01-19T03:06:42.778Z,5.15
2023-01-19T03:10:54.052Z,6.40
2023-01-19T03:15:03.504Z,5.10
2023-01-19T03:19:10.828Z,5.97
2023-01-19T03:23:16.605Z,5.50
2023-01-19T03:27:24.415Z,5.93
2023-01-19T03:31:32.376Z,5.90
2023-01-19T03:35:40.726Z,5.20
2023-01-19T03:39:44.231Z,6.70
2023-01-19T03:43:50.152Z,6.63
2023-01-19T03:47:56.052Z,6.68
2023-01-19T03:52:00.119Z,5.05
2023-01-19T03:56:03.842Z,6.13
2023-01-19T04:00:08.311Z,5.72
2023-01-19T04:04:16.632Z,5.97
2023-01-19T04:08:19.742Z,5.25
2023-01-19T04:12:22.792Z,6.85
2023-01-19T04:16:25.841Z,6.47
2023-01-19T04:20:30.692Z,5.57
2023-01-19T04:24:33.765Z,5.72
2023-01-19T04:28:38.117Z,7.40
2023-01-19T04:32:41.211Z,5.07
2023-01-19T04:36:46.986Z,6.75
2023-01-19T04:40:50.596Z,5.05
2023-01-19T04:44:53.790Z,6.32
2023-01-19T04:48:56.868Z,7.13
2023-01-19T04:53:02.562Z,5.65
2023-01-19T04:57:06.039Z,5.28
2023-01-19T05:01:10.016Z,6.07
2023-01-19T05:05:14.396Z,4.85
2023-01-19T05:09:18.804Z,4.82
2023-01-19T05:13:21.902Z,5.30
2023-01-19T05:17:25.151Z,4.85
2023-01-19T05:21:28.342Z,5.00
2023-01-19T05:25:32.732Z,5.18
2023-01-19T05:29:35.771Z,6.70
2023-01-19T05:33:38.974Z,5.68
2023-01-19T05:37:42.031Z,5.78
2023-01-19T05:41:46.564Z,5.35
2023-01-19T05:45:49.574Z,6.07
2023-01-19T05:49:52.478Z,6.47
2023-01-19T05:53:55.523Z,6.85
2023-01-19T05:57:59.965Z,6.72
2023-01-19T06:02:03.012Z,6.28
2023-01-19T06:06:06.469Z,6.70
2023-01-19T06:10:11.004Z,5.77
2023-01-19T06:14:15.730Z,6.38
2023-01-19T06:18:18.615Z,8.30
2023-01-19T06:22:21.548Z,6.25
2023-01-19T06:26:24.473Z,6.90
2023-01-19T06:30:29.119Z,6.43
2023-01-19T06:34:32.286Z,6.83
2023-01-19T06:38:35.199Z,6.65
2023-01-19T06:42:38.132Z,7.00
2023-01-19T06:46:42.407Z,8.00
2023-01-19T06:50:46.677Z,6.13
2023-01-19T06:54:49.827Z,7.88
2023-01-19T06:58:53.104Z,7.60
2023-01-19T07:02:57.904Z,8.60
2023-01-19T07:07:01.480Z,7.65
2023-01-19T07:11:25.849Z,6.97
2023-01-19T07:15:29.319Z,6.07
2023-01-19T07:19:35.021Z,5.47
2023-01-19T07:23:38.569Z,6.28
2023-01-19T07:27:42.276Z,6.87
2023-01-19T07:31:45.954Z,7.57
2023-01-19T07:35:51.412Z,7.13
2023-01-19T07:39:54.370Z,6.27
2023-01-19T07:43:57.270Z,6.40
2023-01-19T07:48:00.212Z,7.38
2023-01-19T07:52:04.605Z,6.83
2023-01-19T07:56:07.835Z,7.82
2023-01-19T08:00:14.401Z,6.47
2023-01-19T08:04:19.081Z,7.87
2023-01-19T08:08:23.511Z,6.82
2023-01-19T08:12:26.852Z,7.40
2023-01-19T08:16:29.803Z,7.07
2023-01-19T08:20:33.530Z,6.50
2023-01-19T08:24:37.858Z,5.57
2023-01-19T08:28:41.095Z,5.78
2023-01-19T08:32:44.073Z,7.18
2023-01-19T08:36:47.726Z,7.07
2023-01-19T08:40:51.991Z,5.93
2023-01-19T08:44:58.645Z,5.80
2023-01-19T08:49:01.792Z,5.73
2023-01-19T08:53:07.137Z,5.90
2023-01-19T08:57:11.467Z,6.53
2023-01-19T09:01:16.894Z,8.35
2023-01-19T09:05:20.366Z,6.57
2023-01-19T09:09:23.283Z,7.68
2023-01-19T09:13:27.537Z,7.75
2023-01-19T09:17:30.413Z,6.75
2023-01-19T09:21:33.303Z,5.78
2023-01-19T09:25:36.220Z,4.85
2023-01-19T09:29:40.687Z,5.93
2023-01-19T09:33:43.655Z,6.60
2023-01-19T09:37:47.538Z,5.45
2023-01-19T09:42:02.133Z,4.80
2023-01-19T09:46:12.341Z,5.72
2023-01-19T09:50:21.834Z,5.03
2023-01-19T09:54:31.208Z,3.38
2023-01-19T09:58:34.152Z,5.38
2023-01-19T10:02:44.161Z,4.32
2023-01-19T10:06:48.844Z,3.65
2023-01-19T10:10:55.014Z,4.68
2023-01-19T10:15:04.793Z,4.28
2023-01-19T10:19:24.642Z,5.55
2023-01-19T10:23:48.109Z,4.50
2023-01-19T10:27:51.347Z,3.70
2023-01-19T10:32:02.437Z,3.28
2023-01-19T10:36:17.294Z,2.40
2023-01-19T10:40:29.988Z,2.38
2023-01-19T10:44:38.266Z,2.63
2023-01-19T10:48:42.964Z,4.22
2023-01-19T10:52:52.058Z,2.78
2023-01-19T10:56:57.733Z,3.92
2023-01-19T11:01:14.359Z,4.72
2023-01-19T11:05:26.180Z,5.45
2023-01-19T11:09:30.534Z,5.45
2023-01-19T11:13:33.567Z,5.78
2023-01-19T11:17:36.774Z,5.53
2023-01-19T11:21:39.827Z,5.22
2023-01-19T11:25:47.443Z,7.47
2023-01-19T11:29:54.679Z,4.75
2023-01-19T11:33:59.401Z,7.30
2023-01-19T11:38:18.111Z,7.70
2023-01-19T11:42:23.242Z,5.63
2023-01-19T11:46:32.355Z,5.22
2023-01-19T11:50:42.347Z,5.43
2023-01-19T11:54:50.543Z,5.22
2023-01-19T11:58:54.911Z,4.13
2023-01-19T12:03:04.077Z,4.10
2023-01-19T12:07:10.698Z,3.72
2023-01-19T12:11:18.059Z,3.38
2023-01-19T12:15:30.989Z,2.65
2023-01-19T12:19:44.160Z,3.78
2023-01-19T12:24:01.307Z,2.88
2023-01-19T12:28:04.799Z,3.47
2023-01-19T12:32:34.428Z,2.03
2023-01-19T12:36:39.682Z,1.98
2023-01-19T12:40:42.566Z,1.30
2023-01-19T12:44:47.033Z,1.65
2023-01-19T12:48:51.389Z,2.58
2023-01-19T12:52:58.411Z,3.00
2023-01-19T12:57:03.877Z,1.95
2023-01-19T13:01:16.155Z,1.55
2023-01-19T13:05:57.781Z,4.63
2023-01-19T13:10:22.089Z,2.28
2023-01-19T13:14:39.824Z,2.10
2023-01-19T13:18:43.877Z,2.20
2023-01-19T13:23:19.704Z,2.42
2023-01-19T13:27:28.516Z,3.55
2023-01-19T13:31:35.791Z,2.47
2023-01-19T13:35:38.979Z,2.75
2023-01-19T13:39:44.793Z,2.97
2023-01-19T13:43:55.496Z,3.08
2023-01-19T13:48:01.657Z,3.15
2023-01-19T13:52:06.363Z,3.92
2023-01-19T13:56:21.865Z,3.67
2023-01-19T14:00:27.822Z,3.93
2023-01-19T14:04:32.402Z,6.00
2023-01-19T14:08:35.462Z,3.15
2023-01-19T14:12:58.325Z,3.30
2023-01-19T14:17:32.813Z,3.10
2023-01-19T14:21:40.649Z,5.00
2023-01-19T14:25:45.801Z,2.80
2023-01-19T14:29:50.712Z,2.00
2023-01-19T14:33:58.404Z,3.13
2023-01-19T14:38:01.402Z,2.63
2023-01-19T14:42:07.815Z,2.97
2023-01-19T14:46:18.686Z,3.63
2023-01-19T14:50:26.209Z,3.65
2023-01-19T14:54:40.078Z,2.95
2023-01-19T14:58:43.023Z,7.20
2023-01-19T15:02:46.667Z,7.65
2023-01-19T15:06:50.984Z,8.50
2023-01-19T15:10:54.051Z,7.07
2023-01-19T15:14:57.643Z,9.75
2023-01-19T15:19:00.932Z,6.38
2023-01-19T15:23:05.289Z,7.07
2023-01-19T15:27:11.765Z,8.57
2023-01-19T15:31:17.056Z,8.63
2023-01-19T15:35:22.148Z,9.88
2023-01-19T15:39:27.172Z,7.57
2023-01-19T15:43:30.324Z,9.40
2023-01-19T15:47:33.253Z,9.70
2023-01-19T15:51:36.340Z,8.90
2023-01-19T15:55:40.688Z,8.88
2023-01-19T15:59:44.286Z,12.93
2023-01-19T16:03:47.491Z,9.98
2023-01-19T16:07:50.511Z,9.35
2023-01-19T16:11:56.795Z,9.30
2023-01-19T16:16:03.306Z,9.75
2023-01-19T16:20:07.805Z,8.93
2023-01-19T16:24:10.912Z,8.82
2023-01-19T16:28:15.182Z,8.63
2023-01-19T16:32:18.193Z,9.52
2023-01-19T16:36:23.589Z,9.45
2023-01-19T16:40:27.468Z,10.13
2023-01-19T16:44:31.985Z,11.43
2023-01-19T16:48:34.964Z,8.13
2023-01-19T16:52:38.072Z,8.70
2023-01-19T16:56:41.519Z,7.50
2023-01-19T17:00:45.888Z,9.77
2023-01-19T17:04:49.263Z,8.00
2023-01-19T17:08:53.699Z,9.20
2023-01-19T17:12:56.654Z,9.82
2023-01-19T17:17:01.151Z,9.75
2023-01-19T17:21:06.519Z,8.00
2023-01-19T17:25:09.779Z,9.77
2023-01-19T17:29:12.908Z,7.93
2023-01-19T17:33:17.243Z,6.97
2023-01-19T17:37:20.194Z,8.17
2023-01-19T17:41:25.223Z,8.55
2023-01-19T17:45:28.139Z,7.50
2023-01-19T17:49:32.516Z,8.55
2023-01-19T17:53:37.837Z,12.38
2023-01-19T17:57:40.944Z,8.27
2023-01-19T18:01:44.996Z,9.23
2023-01-19T18:05:55.566Z,8.55
2023-01-19T18:10:00.887Z,8.83
2023-01-19T18:14:04.087Z,10.73
2023-01-19T18:18:07.036Z,9.43
2023-01-19T18:22:11.283Z,8.10
2023-01-19T18:26:16.112Z,9.20
2023-01-19T18:30:20.392Z,10.73
2023-01-19T18:34:23.365Z,8.55
2023-01-19T18:38:27.734Z,10.77
2023-01-19T18:42:30.629Z,8.35
2023-01-19T18:46:33.666Z,9.57
2023-01-19T18:50:36.552Z,11.57
2023-01-19T18:54:41.200Z,9.53
2023-01-19T18:58:44.853Z,11.35
2023-01-19T19:02:47.815Z,8.65
2023-01-19T19:06:50.870Z,10.55
2023-01-19T19:10:55.130Z,12.87
2023-01-19T19:14:58.252Z,10.87
2023-01-19T19:19:01.219Z,10.43
2023-01-19T19:23:04.130Z,9.98
2023-01-19T19:27:13.889Z,12.73
2023-01-19T19:31:20.445Z,10.65
2023-01-19T19:35:24.009Z,12.33
2023-01-19T19:39:27.141Z,9.63
2023-01-19T19:43:32.767Z,9.53
2023-01-19T19:47:35.666Z,10.73
2023-01-19T19:51:38.909Z,10.80
2023-01-19T19:55:42.049Z,12.00
2023-01-19T19:59:46.389Z,9.70
2023-01-19T20:03:49.659Z,9.10
2023-01-19T20:07:52.682Z,9.60
2023-01-19T20:11:55.555Z,9.97
2023-01-19T20:16:01.885Z,9.27
2023-01-19T20:20:05.337Z,9.13
2023-01-19T20:24:11.434Z,14.30
2023-01-19T20:28:14.325Z,11.00
2023-01-19T20:32:18.586Z,11.98
2023-01-19T20:36:22.089Z,10.07
2023-01-19T20:40:24.984Z,10.93
2023-01-19T20:44:27.966Z,12.60
2023-01-19T20:48:32.708Z,9.93
2023-01-19T20:52:36.274Z,10.53
2023-01-19T20:56:41.225Z,9.30
2023-01-19T21:00:44.739Z,12.10
2023-01-19T21:04:49.307Z,11.77
2023-01-19T21:08:52.594Z,13.60
2023-01-19T21:12:55.627Z,12.80
2023-01-19T21:16:58.701Z,10.03
2023-01-19T21:21:03.183Z,9.70
2023-01-19T21:25:07.487Z,11.97
2023-01-19T21:29:13.295Z,12.30
2023-01-19T21:33:17.005Z,11.30
2023-01-19T21:37:21.511Z,11.23
2023-01-19T21:41:24.500Z,9.90
2023-01-19T21:45:27.556Z,13.00
2023-01-19T21:49:31.004Z,10.63
2023-01-19T21:53:35.516Z,11.17
2023-01-19T21:57:38.544Z,9.40
2023-01-19T22:01:42.272Z,9.83
2023-01-19T22:05:45.584Z,9.43
2023-01-19T22:09:50.112Z,10.53
2023-01-19T22:13:53.293Z,9.47
2023-01-19T22:17:56.299Z,9.97
2023-01-19T22:21:59.279Z,9.47
2023-01-19T22:26:03.781Z,10.73
2023-01-19T22:30:08.105Z,9.83
2023-01-19T22:34:12.036Z,9.53
2023-01-19T22:38:15.231Z,10.13
2023-01-19T22:42:19.697Z,9.93
2023-01-19T22:46:24.866Z,11.40
2023-01-19T22:50:27.896Z,9.57
2023-01-19T22:54:30.913Z,11.00
2023-01-19T22:58:35.344Z,10.13
2023-01-19T23:02:38.373Z,12.80
2023-01-19T23:06:41.593Z,9.73
2023-01-19T23:10:44.843Z,10.03
2023-01-19T23:14:49.310Z,10.60
2023-01-19T23:18:55.059Z,9.60
2023-01-19T23:22:58.033Z,9.80
2023-01-19T23:27:02.397Z,10.10
2023-01-19T23:31:16.396Z,11.63
2023-01-19T23:35:19.483Z,8.90
2023-01-19T23:39:23.746Z,10.13
2023-01-19T23:43:26.809Z,8.07
2023-01-19T23:47:31.227Z,8.77
2023-01-19T23:51:34.977Z,7.97
2023-01-19T23:55:38.176Z,8.90
2023-01-19T23:59:41.425Z,10.60
